createdAt,value
2022-08-28T00:00:32.704Z,41.98
2022-08-28T00:03:17.359Z,42.23
2022-08-28T00:05:51.354Z,42.54
2022-08-28T00:08:45.257Z,42.32
2022-08-28T00:11:18.574Z,42.26
2022-08-28T00:13:52.462Z,42.54
2022-08-28T00:16:27.064Z,42.42
2022-08-28T00:19:02.188Z,42.43
2022-08-28T00:21:37.430Z,42.71
2022-08-28T00:24:11.305Z,42.72
2022-08-28T00:27:23.310Z,43.03
2022-08-28T00:29:56.669Z,42.74
2022-08-28T00:32:50.349Z,42.89
2022-08-28T00:35:25.093Z,42.94
2022-08-28T00:38:01.672Z,43.20
2022-08-28T00:40:40.104Z,43.17
2022-08-28T00:43:23.811Z,43.44
2022-08-28T00:45:57.444Z,43.47
2022-08-28T00:48:31.460Z,43.41
2022-08-28T00:51:23.780Z,43.22
2022-08-28T00:54:08.217Z,43.35
2022-08-28T00:56:43.579Z,43.46
2022-08-28T00:59:19.348Z,43.74
2022-08-28T01:01:56.852Z,43.95
2022-08-28T01:04:33.869Z,44.06
2022-08-28T01:07:13.172Z,44.13
2022-08-28T01:09:51.019Z,44.07
2022-08-28T01:12:27.078Z,44.29
2022-08-28T01:15:10.954Z,44.10
2022-08-28T01:17:53.109Z,43.98
2022-08-28T01:20:30.903Z,44.45
2022-08-28T01:23:10.996Z,44.25
2022-08-28T01:25:45.178Z,44.19
2022-08-28T01:28:19.111Z,44.23
2022-08-28T01:30:56.545Z,44.39
2022-08-28T01:33:30.467Z,44.39
2022-08-28T01:36:04.479Z,44.34
2022-08-28T01:38:38.810Z,44.49
2022-08-28T01:41:15.244Z,44.48
2022-08-28T01:43:49.310Z,44.53
2022-08-28T01:46:22.867Z,44.76
2022-08-28T01:48:56.308Z,44.62
2022-08-28T01:51:29.932Z,44.55
2022-08-28T01:54:09.955Z,44.68
2022-08-28T01:56:46.016Z,44.75
2022-08-28T01:59:19.827Z,44.79
2022-08-28T02:01:55.597Z,44.84
2022-08-28T02:04:29.637Z,45.05
2022-08-28T02:07:05.829Z,44.96
2022-08-28T02:09:39.148Z,45.21
2022-08-28T02:12:16.113Z,45.07
2022-08-28T02:14:53.580Z,45.11
2022-08-28T02:17:27.715Z,44.94
2022-08-28T02:20:01.326Z,44.68
2022-08-28T02:22:35.154Z,44.81
2022-08-28T02:25:11.899Z,44.68
2022-08-28T02:27:45.763Z,44.93
2022-08-28T02:30:20.547Z,45.51
2022-08-28T02:32:54.683Z,45.72
2022-08-28T02:35:28.537Z,45.80
2022-08-28T02:38:03.084Z,45.79
2022-08-28T02:40:39.823Z,45.93
2022-08-28T02:43:13.707Z,46.02
2022-08-28T02:45:47.127Z,46.35
2022-08-28T02:48:22.430Z,46.34
2022-08-28T02:51:00.873Z,46.67
2022-08-28T02:53:35.470Z,46.54
2022-08-28T02:56:09.886Z,46.70
2022-08-28T02:58:43.793Z,46.73
2022-08-28T03:01:20.174Z,46.87
2022-08-28T03:03:54.117Z,46.91
2022-08-28T03:06:30.763Z,47.01
2022-08-28T03:09:04.335Z,47.08
2022-08-28T03:11:38.222Z,47.33
2022-08-28T03:14:11.907Z,47.39
2022-08-28T03:16:45.539Z,47.55
2022-08-28T03:19:19.109Z,47.90
2022-08-28T03:21:53.250Z,47.81
2022-08-28T03:24:26.747Z,47.86
2022-08-28T03:27:02.193Z,47.87
2022-08-28T03:29:35.971Z,47.78
2022-08-28T03:32:10.067Z,47.86
2022-08-28T03:34:43.708Z,48.04
2022-08-28T03:37:17.570Z,48.11
2022-08-28T03:39:54.260Z,48.32
2022-08-28T03:42:27.816Z,48.38
2022-08-28T03:45:01.552Z,48.49
2022-08-28T03:47:36.996Z,48.45
2022-08-28T03:50:31.782Z,48.48
2022-08-28T03:53:05.433Z,48.59
2022-08-28T03:55:41.512Z,48.52
2022-08-28T03:58:35.232Z,48.60
2022-08-28T04:01:08.691Z,48.66
2022-08-28T04:04:03.267Z,48.76
2022-08-28T04:06:36.850Z,48.56
2022-08-28T04:09:11.276Z,48.61
2022-08-28T04:11:45.257Z,48.70
2022-08-28T04:14:18.813Z,48.77
2022-08-28T04:16:52.520Z,48.76
2022-08-28T04:19:26.399Z,48.72
2022-08-28T04:21:59.783Z,48.95
2022-08-28T04:24:33.664Z,48.97
2022-08-28T04:27:09.913Z,48.97
2022-08-28T04:29:46.073Z,49.17
2022-08-28T04:32:19.866Z,49.42
2022-08-28T04:34:54.309Z,49.53
2022-08-28T04:37:28.189Z,49.55
2022-08-28T04:40:02.300Z,49.93
2022-08-28T04:42:40.445Z,49.86
2022-08-28T04:45:15.145Z,49.87
2022-08-28T04:47:49.254Z,49.80
2022-08-28T04:50:23.013Z,50.03
2022-08-28T04:52:56.564Z,50.00
2022-08-28T04:55:45.105Z,49.94
2022-08-28T04:58:24.557Z,50.00
2022-08-28T05:00:58.355Z,49.98
2022-08-28T05:03:33.169Z,50.08
2022-08-28T05:06:06.826Z,50.28
2022-08-28T05:08:43.744Z,50.54
2022-08-28T05:11:32.936Z,50.48
2022-08-28T05:14:13.910Z,50.55
2022-08-28T05:16:58.013Z,50.37
2022-08-28T05:19:31.680Z,50.34
2022-08-28T05:22:05.513Z,50.03
2022-08-28T05:24:50.299Z,49.78
2022-08-28T05:27:24.897Z,49.67
2022-08-28T05:30:01.947Z,49.52
2022-08-28T05:32:35.919Z,49.42
2022-08-28T05:35:10.457Z,49.62
2022-08-28T05:37:44.057Z,49.81
2022-08-28T05:40:19.135Z,50.05
2022-08-28T05:42:53.239Z,49.88
2022-08-28T05:45:27.108Z,49.96
2022-08-28T05:48:00.439Z,50.10
2022-08-28T05:50:34.405Z,50.27
2022-08-28T05:53:08.128Z,50.14
2022-08-28T05:55:44.652Z,49.99
2022-08-28T05:58:31.769Z,49.79
2022-08-28T06:01:14.554Z,49.63
2022-08-28T06:03:57.416Z,49.36
2022-08-28T06:06:35.901Z,49.36
2022-08-28T06:09:15.553Z,49.65
2022-08-28T06:11:50.022Z,49.71
2022-08-28T06:14:24.227Z,49.51
2022-08-28T06:17:00.319Z,49.34
2022-08-28T06:19:40.570Z,49.42
2022-08-28T06:22:15.881Z,48.63
2022-08-28T06:24:59.324Z,48.23
2022-08-28T06:27:34.653Z,48.09
2022-08-28T06:30:21.179Z,47.96
2022-08-28T06:32:55.120Z,47.84
2022-08-28T06:35:32.345Z,48.09
2022-08-28T06:38:05.890Z,47.77
2022-08-28T06:40:44.222Z,47.54
2022-08-28T06:43:19.233Z,47.26
2022-08-28T06:45:57.813Z,46.01
2022-08-28T06:48:32.067Z,43.02
2022-08-28T06:51:09.731Z,41.86
2022-08-28T06:53:45.498Z,39.86
2022-08-28T06:56:33.794Z,38.21
2022-08-28T06:59:27.869Z,35.98
2022-08-28T07:02:06.168Z,35.35
2022-08-28T07:04:40.014Z,33.93
2022-08-28T07:07:32.436Z,33.01
2022-08-28T07:10:07.163Z,31.46
2022-08-28T07:12:42.060Z,30.39
2022-08-28T07:15:28.754Z,29.24
2022-08-28T07:18:02.587Z,28.20
2022-08-28T07:20:36.383Z,27.52
2022-08-28T07:23:09.709Z,26.18
2022-08-28T07:25:46.848Z,26.17
2022-08-28T07:28:27.883Z,24.65
2022-08-28T07:31:04.470Z,24.58
2022-08-28T07:33:39.553Z,24.52
2022-08-28T07:36:29.018Z,23.92
2022-08-28T07:39:05.371Z,23.92
2022-08-28T07:41:45.998Z,23.52
2022-08-28T07:44:38.449Z,23.17
2022-08-28T07:47:13.924Z,23.23
2022-08-28T07:49:48.771Z,23.90
2022-08-28T07:52:22.693Z,23.74
2022-08-28T07:54:56.201Z,24.00
2022-08-28T07:57:29.910Z,24.67
2022-08-28T08:00:08.515Z,25.76
2022-08-28T08:02:44.993Z,26.56
2022-08-28T08:05:18.772Z,27.45
2022-08-28T08:08:02.863Z,28.31
2022-08-28T08:10:36.889Z,29.08
2022-08-28T08:13:13.406Z,29.42
2022-08-28T08:15:50.320Z,30.05
2022-08-28T08:18:26.561Z,30.27
2022-08-28T08:21:00.367Z,30.23
2022-08-28T08:23:35.245Z,29.81
2022-08-28T08:26:10.562Z,29.20
2022-08-28T08:28:45.731Z,29.47
2022-08-28T08:31:22.057Z,29.63
2022-08-28T08:33:57.992Z,30.67
2022-08-28T08:36:33.318Z,31.55
2022-08-28T08:39:10.871Z,32.39
2022-08-28T08:41:50.259Z,32.95
2022-08-28T08:44:33.348Z,33.54
2022-08-28T08:47:15.116Z,34.03
2022-08-28T08:49:56.538Z,34.35
2022-08-28T08:52:48.876Z,34.14
2022-08-28T08:55:27.452Z,34.27
2022-08-28T08:58:12.529Z,34.86
2022-08-28T09:01:01.370Z,34.67
2022-08-28T09:04:02.670Z,34.88
2022-08-28T09:07:01.744Z,35.50
2022-08-28T09:09:38.728Z,35.88
2022-08-28T09:12:18.725Z,35.73
2022-08-28T09:15:16.298Z,36.11
2022-08-28T09:17:54.751Z,36.43
2022-08-28T09:20:32.754Z,36.59
2022-08-28T09:23:13.158Z,36.82
2022-08-28T09:26:02.026Z,37.11
2022-08-28T09:28:42.346Z,37.07
2022-08-28T09:31:19.992Z,37.08
2022-08-28T09:33:55.684Z,37.02
2022-08-28T09:36:33.450Z,37.25
2022-08-28T09:39:19.248Z,37.49
2022-08-28T09:42:25.401Z,37.27
2022-08-28T09:45:09.064Z,37.61
2022-08-28T09:47:52.141Z,37.78
2022-08-28T09:50:35.120Z,37.28
2022-08-28T09:53:23.062Z,37.40
2022-08-28T09:56:15.890Z,37.70
2022-08-28T09:58:52.692Z,37.67
2022-08-28T10:01:38.362Z,37.39
2022-08-28T10:04:30.741Z,36.72
2022-08-28T10:07:10.230Z,36.25
2022-08-28T10:09:50.931Z,36.34
2022-08-28T10:12:36.887Z,36.22
2022-08-28T10:15:26.538Z,36.54
2022-08-28T10:18:30.369Z,36.21
2022-08-28T10:21:13.651Z,35.86
2022-08-28T10:24:05.724Z,36.43
2022-08-28T10:26:47.781Z,36.72
2022-08-28T10:29:45.694Z,36.83
2022-08-28T10:32:38.658Z,36.48
2022-08-28T10:35:17.501Z,36.64
2022-08-28T10:38:01.425Z,37.02
2022-08-28T10:40:38.595Z,37.08
2022-08-28T10:43:16.684Z,36.87
2022-08-28T10:45:49.794Z,36.42
2022-08-28T10:48:27.728Z,36.65
2022-08-28T10:51:08.311Z,36.65
2022-08-28T10:53:46.187Z,37.06
2022-08-28T10:56:26.798Z,36.76
2022-08-28T10:59:09.409Z,36.66
2022-08-28T11:01:45.018Z,36.02
2022-08-28T11:04:25.677Z,35.42
2022-08-28T11:07:09.715Z,35.20
2022-08-28T11:09:49.532Z,35.59
2022-08-28T11:12:44.313Z,35.67
2022-08-28T11:15:51.746Z,35.77
2022-08-28T11:18:40.093Z,35.97
2022-08-28T11:21:23.248Z,35.85
2022-08-28T11:24:08.865Z,35.96
2022-08-28T11:26:58.390Z,35.86
2022-08-28T11:30:03.583Z,35.94
2022-08-28T11:35:58.499Z,35.90
2022-08-28T11:39:14.523Z,36.07
2022-08-28T11:42:32.521Z,35.88
2022-08-28T11:45:06.253Z,36.14
2022-08-28T11:47:47.762Z,36.12
2022-08-28T11:50:29.228Z,35.29
2022-08-28T11:53:43.412Z,35.03
2022-08-28T11:56:51.570Z,35.38
2022-08-28T11:59:42.284Z,35.41
2022-08-28T12:02:58.550Z,35.16
2022-08-28T12:05:48.306Z,32.76
2022-08-28T12:08:58.985Z,33.11
2022-08-28T12:11:57.819Z,33.88
2022-08-28T12:15:01.388Z,33.52
2022-08-28T12:17:52.199Z,33.18
2022-08-28T12:20:34.141Z,32.61
2022-08-28T12:23:41.218Z,31.67
2022-08-28T12:26:24.490Z,29.97
2022-08-28T12:29:01.815Z,29.84
2022-08-28T12:32:17.145Z,29.78
2022-08-28T12:35:16.468Z,29.47
2022-08-28T12:38:03.342Z,29.91
2022-08-28T12:40:53.416Z,30.42
2022-08-28T12:43:41.726Z,30.59
2022-08-28T12:46:27.685Z,30.97
2022-08-28T12:49:06.654Z,31.53
2022-08-28T12:51:40.972Z,31.98
2022-08-28T12:54:20.267Z,32.49
2022-08-28T12:57:05.310Z,33.01
2022-08-28T12:59:42.219Z,33.33
2022-08-28T13:02:24.670Z,33.42
2022-08-28T13:05:02.066Z,33.27
2022-08-28T13:07:40.982Z,33.42
2022-08-28T13:10:25.357Z,32.96
2022-08-28T13:13:05.654Z,33.19
2022-08-28T13:15:55.780Z,33.28
2022-08-28T13:18:41.165Z,33.00
2022-08-28T13:21:38.059Z,33.25
2022-08-28T13:24:46.043Z,33.15
2022-08-28T13:27:26.029Z,33.36
2022-08-28T13:30:21.514Z,33.69
2022-08-28T13:33:02.493Z,33.32
2022-08-28T13:35:42.385Z,33.36
2022-08-28T13:38:23.311Z,33.38
2022-08-28T13:41:06.385Z,33.80
2022-08-28T13:43:49.038Z,33.79
2022-08-28T13:46:31.668Z,33.70
2022-08-28T13:49:05.005Z,33.87
2022-08-28T13:51:39.558Z,33.78
2022-08-28T13:54:13.585Z,33.91
2022-08-28T13:56:47.402Z,34.35
2022-08-28T13:59:23.657Z,34.53
2022-08-28T14:02:18.334Z,34.49
2022-08-28T14:04:52.032Z,34.67
2022-08-28T14:07:25.581Z,34.58
2022-08-28T14:09:59.051Z,35.05
2022-08-28T14:12:33.636Z,35.03
2022-08-28T14:15:08.562Z,35.19
2022-08-28T14:17:42.310Z,35.26
2022-08-28T14:20:16.706Z,35.37
2022-08-28T14:22:50.251Z,35.35
2022-08-28T14:25:23.937Z,35.66
2022-08-28T14:27:57.543Z,35.75
2022-08-28T14:30:31.358Z,35.90
2022-08-28T14:33:04.766Z,35.68
2022-08-28T14:35:42.092Z,35.66
2022-08-28T14:38:16.588Z,35.66
2022-08-28T14:40:50.781Z,35.81
2022-08-28T14:43:28.773Z,35.83
2022-08-28T14:46:02.692Z,35.92
2022-08-28T14:48:36.622Z,35.69
2022-08-28T14:51:09.855Z,35.89
2022-08-28T14:53:43.596Z,35.92
2022-08-28T14:56:17.258Z,35.96
2022-08-28T14:58:50.993Z,36.01
2022-08-28T15:01:39.557Z,36.33
2022-08-28T15:04:17.064Z,36.50
2022-08-28T15:06:51.826Z,36.55
2022-08-28T15:09:28.704Z,36.66
2022-08-28T15:12:02.431Z,36.58
2022-08-28T15:14:35.878Z,36.62
2022-08-28T15:17:09.908Z,36.47
2022-08-28T15:19:43.571Z,36.59
2022-08-28T15:22:27.129Z,36.40
2022-08-28T15:25:01.886Z,36.34
2022-08-28T15:27:35.396Z,36.51
2022-08-28T15:30:11.976Z,36.67
2022-08-28T15:32:46.532Z,37.08
2022-08-28T15:35:20.098Z,37.15
2022-08-28T15:37:53.931Z,37.69
2022-08-28T15:40:45.356Z,38.15
2022-08-28T15:43:18.962Z,38.22
2022-08-28T15:45:52.327Z,37.96
2022-08-28T15:48:25.515Z,37.99
2022-08-28T15:50:58.920Z,38.10
2022-08-28T15:53:34.264Z,38.03
2022-08-28T15:56:07.870Z,38.05
2022-08-28T15:58:44.355Z,38.07
2022-08-28T16:01:17.965Z,38.25
2022-08-28T16:03:51.444Z,38.35
2022-08-28T16:06:25.188Z,38.60
2022-08-28T16:08:59.064Z,38.78
2022-08-28T16:11:33.838Z,38.83
2022-08-28T16:14:07.261Z,39.06
2022-08-28T16:16:40.890Z,39.22
2022-08-28T16:19:19.986Z,39.58
2022-08-28T16:21:54.039Z,39.78
2022-08-28T16:24:33.292Z,39.98
2022-08-28T16:27:09.665Z,40.37
2022-08-28T16:29:49.577Z,40.68
2022-08-28T16:32:27.285Z,41.08
2022-08-28T16:35:03.108Z,41.53
2022-08-28T16:37:39.833Z,41.80
2022-08-28T16:40:15.820Z,42.17
2022-08-28T16:42:51.565Z,42.60
2022-08-28T16:45:30.074Z,42.74
2022-08-28T16:48:04.255Z,42.97
2022-08-28T16:50:37.804Z,42.98
2022-08-28T16:53:11.574Z,43.34
2022-08-28T16:55:47.402Z,43.54
2022-08-28T16:58:21.217Z,44.06
2022-08-28T17:00:55.944Z,43.93
2022-08-28T17:03:30.415Z,43.87
2022-08-28T17:06:10.122Z,44.17
2022-08-28T17:08:44.349Z,44.41
2022-08-28T17:11:18.283Z,44.61
2022-08-28T17:13:52.330Z,44.95
2022-08-28T17:16:27.757Z,45.05
2022-08-28T17:19:01.595Z,45.08
2022-08-28T17:21:53.086Z,45.25
2022-08-28T17:24:26.961Z,45.44
2022-08-28T17:27:05.468Z,45.84
2022-08-28T17:29:39.935Z,45.79
2022-08-28T17:32:15.001Z,44.71
2022-08-28T17:34:48.554Z,44.79
2022-08-28T17:37:24.181Z,44.73
2022-08-28T17:39:58.102Z,44.91
2022-08-28T17:42:32.111Z,45.03
2022-08-28T17:45:05.664Z,45.35
2022-08-28T17:47:39.759Z,45.90
2022-08-28T17:50:14.139Z,46.67
2022-08-28T17:52:47.609Z,47.36
2022-08-28T17:55:23.707Z,47.76
2022-08-28T17:57:56.993Z,48.16
2022-08-28T18:00:30.983Z,48.47
2022-08-28T18:03:04.735Z,48.75
2022-08-28T18:05:38.870Z,49.12
2022-08-28T18:08:12.499Z,49.33
2022-08-28T18:10:46.347Z,49.63
2022-08-28T18:13:20.644Z,49.73
2022-08-28T18:15:56.972Z,49.88
2022-08-28T18:18:36.616Z,50.08
2022-08-28T18:21:12.459Z,50.06
2022-08-28T18:23:46.280Z,50.15
2022-08-28T18:26:20.520Z,50.23
2022-08-28T18:28:54.406Z,50.53
2022-08-28T18:31:29.757Z,50.72
2022-08-28T18:34:06.341Z,51.03
2022-08-28T18:36:47.865Z,51.29
2022-08-28T18:39:29.220Z,51.56
2022-08-28T18:42:03.848Z,51.83
2022-08-28T18:44:38.055Z,52.02
2022-08-28T18:47:12.023Z,52.01
2022-08-28T18:49:46.009Z,52.13
2022-08-28T18:52:20.532Z,52.29
2022-08-28T18:54:54.211Z,52.47
2022-08-28T18:57:33.782Z,52.83
2022-08-28T19:00:10.086Z,53.01
2022-08-28T19:02:44.754Z,53.10
2022-08-28T19:05:19.145Z,53.27
2022-08-28T19:07:53.156Z,53.40
2022-08-28T19:10:35.102Z,53.63
2022-08-28T19:13:10.540Z,53.72
2022-08-28T19:15:45.070Z,53.75
2022-08-28T19:18:19.067Z,53.72
2022-08-28T19:20:53.289Z,53.80
2022-08-28T19:23:26.871Z,54.01
2022-08-28T19:26:00.818Z,54.15
2022-08-28T19:28:35.331Z,54.28
2022-08-28T19:31:09.288Z,54.33
2022-08-28T19:33:43.230Z,54.38
2022-08-28T19:36:17.344Z,54.28
2022-08-28T19:38:51.529Z,54.36
2022-08-28T19:41:25.299Z,54.59
2022-08-28T19:43:59.603Z,54.74
2022-08-28T19:46:34.663Z,54.78
2022-08-28T19:49:09.076Z,55.04
2022-08-28T19:51:43.626Z,55.09
2022-08-28T19:54:17.379Z,55.11
2022-08-28T19:56:51.274Z,55.28
2022-08-28T19:59:27.195Z,55.39
2022-08-28T20:02:01.304Z,55.36
2022-08-28T20:04:37.191Z,55.66
2022-08-28T20:07:10.823Z,55.72
2022-08-28T20:09:44.446Z,55.62
2022-08-28T20:12:18.509Z,55.73
2022-08-28T20:14:52.902Z,55.66
2022-08-28T20:17:27.028Z,55.95
2022-08-28T20:20:03.545Z,55.92
2022-08-28T20:22:38.368Z,55.90
2022-08-28T20:25:13.671Z,56.05
2022-08-28T20:27:48.221Z,56.10
2022-08-28T20:30:21.852Z,56.22
2022-08-28T20:32:55.899Z,56.06
2022-08-28T20:35:30.026Z,56.36
2022-08-28T20:38:03.593Z,56.25
2022-08-28T20:40:37.162Z,56.27
2022-08-28T20:43:10.754Z,56.32
2022-08-28T20:45:44.122Z,56.47
2022-08-28T20:48:17.579Z,56.45
2022-08-28T20:50:51.263Z,56.48
2022-08-28T20:53:37.530Z,56.60
2022-08-28T20:56:12.364Z,56.63
2022-08-28T20:58:45.715Z,56.60
2022-08-28T21:01:19.621Z,56.86
2022-08-28T21:03:53.430Z,56.75
2022-08-28T21:06:26.914Z,56.82
2022-08-28T21:09:00.632Z,56.93
2022-08-28T21:11:34.005Z,56.92
2022-08-28T21:14:07.090Z,56.89
2022-08-28T21:16:40.990Z,56.97
2022-08-28T21:19:16.638Z,56.97
2022-08-28T21:21:50.277Z,57.13
2022-08-28T21:24:25.142Z,57.21
2022-08-28T21:26:59.730Z,57.29
2022-08-28T21:29:33.324Z,57.38
2022-08-28T21:32:07.710Z,57.70
2022-08-28T21:34:41.148Z,57.59
2022-08-28T21:37:14.620Z,57.57
2022-08-28T21:39:48.038Z,57.51
2022-08-28T21:42:21.896Z,57.59
2022-08-28T21:44:55.584Z,57.71
2022-08-28T21:47:29.020Z,57.65
2022-08-28T21:50:02.375Z,57.59
2022-08-28T21:52:36.250Z,57.75
2022-08-28T21:55:12.852Z,57.76
2022-08-28T21:57:46.568Z,57.85
2022-08-28T22:00:23.283Z,57.95
2022-08-28T22:02:57.014Z,58.27
2022-08-28T22:05:30.735Z,58.51
2022-08-28T22:08:04.271Z,58.66
2022-08-28T22:10:40.490Z,59.08
2022-08-28T22:13:16.057Z,59.29
2022-08-28T22:15:50.098Z,59.51
2022-08-28T22:18:23.842Z,59.49
2022-08-28T22:21:30.415Z,59.57
2022-08-28T22:24:03.996Z,59.85
2022-08-28T22:26:37.669Z,60.13
2022-08-28T22:29:11.645Z,60.16
2022-08-28T22:31:46.103Z,60.10
2022-08-28T22:34:19.765Z,60.34
2022-08-28T22:36:53.664Z,60.39
2022-08-28T22:39:27.507Z,60.38
2022-08-28T22:42:00.706Z,60.61
2022-08-28T22:44:34.018Z,60.80
2022-08-28T22:47:07.556Z,60.85
2022-08-28T22:49:41.082Z,61.07
2022-08-28T22:52:15.681Z,61.17
2022-08-28T22:54:52.358Z,61.33
2022-08-28T22:57:27.713Z,61.70
2022-08-28T23:00:03.658Z,61.80
2022-08-28T23:02:37.035Z,61.91
2022-08-28T23:05:10.594Z,61.97
2022-08-28T23:07:44.590Z,62.26
2022-08-28T23:10:18.223Z,62.51
2022-08-28T23:12:51.474Z,62.74
2022-08-28T23:15:25.538Z,62.88
2022-08-28T23:17:59.181Z,63.05
2022-08-28T23:20:34.763Z,63.23
2022-08-28T23:23:09.240Z,63.45
2022-08-28T23:25:43.270Z,63.68
2022-08-28T23:28:17.004Z,63.81
2022-08-28T23:30:51.099Z,64.20
2022-08-28T23:33:24.385Z,64.30
2022-08-28T23:35:57.982Z,64.60
2022-08-28T23:38:33.083Z,64.65
2022-08-28T23:41:06.652Z,64.64
2022-08-28T23:43:40.611Z,65.01
2022-08-28T23:46:18.523Z,65.09
2022-08-28T23:48:52.590Z,65.19
2022-08-28T23:51:26.698Z,65.32
2022-08-28T23:54:00.457Z,65.66
2022-08-28T23:56:34.816Z,65.69
2022-08-28T23:59:12.194Z,65.81
